Terminal Aerodrome Forecast
Issued by NWS

Home | Current Version | Previous Version | Text Only | Print | Product List | Glossary On
Versions: 1 2 3 4 5 6 7 8 9 10 11 12 13 14 15 16 17 18 19 20 21 22 23 24 25 26
000
FTUS46 KOTX 231145 CCB
TAFCOE
TAF COR
KCOE 231145Z 2312/2412 16012KT P6SM -RA SCT028 OVC040
     FM231600 19012KT P6SM VCSH BKN020 OVC035
     FM232000 21011KT P6SM -SHRA SCT030 BKN040
     FM232200 22013KT P6SM VCTS SCT020 BKN040CB OVC060
      TEMPO 2322/2324 24016G28KT P6SM -TSRA BKN025CB OVC050
     FM240200 23009KT P6SM SCT040 BKN050 OVC080
     FM241000 21004KT P6SM SCT016 BKN070
      AMD LTD TO CLD AND VIS=

USA.gov is the U.S. government's official web portal to all federal, state and local government web resources and services.